• Join FlightAware (Why Join?)
  • Login
  • US Flag 
10:11AM EDT


 

Airport Tracker/Info


-or-


 

Live Flight TrackerFlight Track Log ✈ AM223 ✈ 20-Apr-2013 ✈ YSCB / CBR - YSSY / SYD

Flight Track Log - Related Links

Times and Time Zones

All times are in EDT time to prevent confusion due to time zone crossing. See the AM223 flight status page for this flight to view local times or setup timezone preferences in your user account.

Time Position Orientation Groundspeed Altitude Reporting Facility
EDT Latitude Longitude Course Direction KTS MPH feet Rate Location/Type
01:00PM -35.3294 149.1942 77° East 125 144 3,100  Level Aus ATC (RADAR)
01:01PM -35.3221 149.2326 77° East 145 167 5,800 2,280 Climbing Aus ATC (RADAR)
01:02PM -35.2895 149.2841 52° Northeast 132 152 9,000 2,100 Climbing Aus ATC (RADAR)
01:03PM -35.2694 149.3137 50° Northeast 138 159 10,700 1,920 Climbing Aus ATC (RADAR)
01:04PM -35.2425 149.3527 50° Northeast 143 165 12,700 1,800 Climbing Aus ATC (RADAR)
01:05PM -35.2134 149.3938 49° Northeast 152 175 14,700 1,800 Climbing Aus ATC (RADAR)
01:07PM -35.1802 149.4420 50° Northeast 164 189 16,800 1,740 Climbing Aus ATC (RADAR)
01:08PM -35.1503 149.4850 50° Northeast 167 192 18,500 1,680 Climbing Aus ATC (RADAR)
01:09PM -35.1200 149.5284 49° Northeast 168 193 20,200 1,200 Climbing Aus ATC (RADAR)
01:10PM -35.0853 149.5790 50° Northeast 186 214 21,100 420 Climbing Aus ATC (RADAR)
01:11PM -35.0419 149.6405 49° Northeast 245 282 21,100  Level Aus ATC (RADAR)
01:12PM -34.9894 149.7159 50° Northeast 270 311 21,100 -60 Level Aus ATC (RADAR)
01:12PM -34.9510 149.7700 50° Northeast 285 328 21,000 -120 Descending FlightAware
01:13PM -34.9160 149.8200 50° Northeast 289 333 21,000  Level FlightAware
01:14PM -34.8817 149.8695 50° Northeast 289 333 21,000  Level Aus ATC (RADAR)
01:14PM -34.8760 149.8770 50° Northeast 292 336 21,000  Level FlightAware
01:15PM -34.8410 149.9270 50° Northeast 293 337 21,000  Level FlightAware
01:15PM -34.8070 149.9750 49° Northeast 292 336 21,000  Level FlightAware
01:16PM -34.7716 150.0260 49° Northeast 287 330 21,000  Level Aus ATC (RADAR)
01:16PM -34.7620 150.0390 49° Northeast 292 336 21,000  Level FlightAware
01:17PM -34.7280 150.0870 49° Northeast 292 336 21,000  Level FlightAware
01:17PM -34.6920 150.1380 49° Northeast 291 335 21,000  Level FlightAware
01:18PM -34.6619 150.1810 49° Northeast 286 329 21,000  Level Aus ATC (RADAR)
01:18PM -34.6530 150.1940 49° Northeast 288 331 21,000  Level FlightAware
01:19PM -34.6180 150.2430 49° Northeast 289 333 21,000  Level FlightAware
01:19PM -34.5830 150.2920 49° Northeast 289 333 21,000  Level FlightAware
01:20PM -34.5573 150.3285 49° Northeast 285 328 21,000  Level Aus ATC (RADAR)
01:20PM -34.5430 150.3490 49° Northeast 291 335 21,000  Level FlightAware
01:21PM -34.5080 150.3970 49° Northeast 292 336 21,000 -600 Level FlightAware
01:22PM -34.4670 150.4540 49° Northeast 309 356 20,200 -1,200 Descending FlightAware
01:22PM -34.4444 150.4861 49° Northeast 300 345 19,700 -1,080 Descending Aus ATC (RADAR)
01:22PM -34.4300 150.5060 49° Northeast 303 349 19,500 -900 Descending FlightAware
01:23PM -34.3898 150.5628 49° Northeast 294 338 18,800 -960 Descending Aus ATC (RADAR)
01:23PM -34.3880 150.5650 49° Northeast 298 343 18,800 -1,020 Level FlightAware
01:24PM -34.3500 150.6130 46° Northeast 299 344 18,100 -1,080 Descending FlightAware
01:24PM -34.3228 150.6336 46° Northeast 295 339 17,700 -900 Descending Aus ATC (RADAR)
01:24PM -34.3030 150.6480 46° Northeast 300 345 17,500 -1,020 Descending FlightAware
01:25PM -34.2518 150.6859 46° Northeast 296 341 16,700 -1,080 Descending Aus ATC (RADAR)
01:25PM -34.2500 150.6870 46° Northeast 300 345 16,700 -1,020 Level FlightAware
01:26PM -34.2030 150.7210 31° Northeast 300 345 16,000 -1,380 Descending FlightAware
01:26PM -34.1744 150.7416 31° Northeast 294 338 15,300 -1,500 Descending Aus ATC (RADAR)
01:26PM -34.1560 150.7550 31° Northeast 292 336 15,000 -1,500 Descending FlightAware
01:27PM -34.1044 150.7903 31° Northeast 286 329 13,800 -1,620 Descending Aus ATC (RADAR)
01:27PM -34.1020 150.7920 31° Northeast 289 333 13,800 -1,440 Level FlightAware
01:28PM -34.0560 150.8230 29° Northeast 287 330 12,800 -1,740 Descending FlightAware
01:28PM -34.0345 150.8375 29° Northeast 285 328 12,200 -2,100 Descending Aus ATC (RADAR)
01:29PM -34.0090 150.8540 29° Northeast 291 335 11,400 -1,920 Descending FlightAware
01:29PM -33.9660 150.8820 29° Northeast 281 323 10,200 -2,160 Descending FlightAware
01:29PM -33.9580 150.8876 29° Northeast 284 327 9,900 -1,920 Descending Aus ATC (RADAR)
01:30PM -33.9280 150.9080 30° Northeast 284 327 9,100 -1,980 Descending FlightAware
01:30PM -33.8888 150.9335 30° Northeast 279 321 8,000 -2,400 Descending Aus ATC (RADAR)
01:30PM -33.8860 150.9350 30° Northeast 282 325 7,900 -1,920 Descending FlightAware
01:31PM -33.8680 150.9470 29° Northeast 282 325 7,400 -1,800 Descending FlightAware
01:31PM -33.8450 150.9630 30° Northeast 275 316 6,700 -1,740 Descending FlightAware
01:31PM -33.8250 150.9760 30° Northeast 275 316 6,100 -2,580 Descending FlightAware
01:31PM -33.8088 150.9865 30° Northeast 277 319 5,600 -2,400 Descending Aus ATC (RADAR)
01:32PM -33.7900 150.9990 29° Northeast 258 297 5,100 -1,920 Descending FlightAware
01:32PM -33.7630 151.0150 26° Northeast 256 295 4,200 -1,980 Descending FlightAware
01:33PM -33.7390 151.0430 44° Northeast 233 268 3,300 -1,200 Descending FlightAware
01:33PM -33.7280 151.0720 65° Northeast 210 242 3,100 -300 Descending FlightAware
01:33PM -33.7280 151.0870 90° East 177 204 3,100 -240 Level FlightAware
01:34PM -33.7340 151.0970 126° Southeast 157 181 3,000 -180 Descending FlightAware
01:34PM -33.7470 151.1120 136° Southeast 141 162 3,000  Level FlightAware
01:34PM -33.7620 151.1270 140° Southeast 127 146 3,000  Level FlightAware
01:35PM -33.7790 151.1330 164° South 120 138 3,000 -120 Level FlightAware
01:35PM -33.7940 151.1370 168° South 135 155 2,900 -600 Descending FlightAware
01:36PM -33.8140 151.1420 168° South 137 158 2,500 -960 Descending FlightAware
01:36PM -33.8243 151.1445 168° South 137 158 2,200 -840 Descending Aus ATC (RADAR)
01:37PM -33.8599 151.1536 168° South 130 150 1,500 -660 Descending Aus ATC (RADAR)
01:37PM -33.8620 151.1540 168° South 120 138 1,500 -720 Level FlightAware
01:38PM -33.8937 151.1622 168° South 123 142 800 -600 Descending Aus ATC (RADAR)
01:39PM -33.9050 151.1650 168° South 116 133 700 -420 Descending FlightAware
01:39PM -33.9130 151.1670 168° South 103 119 500 -840 Descending FlightAware
01:39PM -33.9271 151.1710 168° South 108 124 200 -600 Descending Aus ATC (RADAR)
01:39PM -33.9290 151.1720 168° South 97 112 200  Level FlightAware
01:40PM -33.9360 151.1730 173° South 84 97 -840 Descending FlightAware
01:40PM -33.9400 151.1740 168° South 24 28  Level FlightAware
01:40PM -33.9410 151.1750 140° Southeast 13 15  Level FlightAware
01:41PM -33.9410 151.1770 90° East 22 25  Level FlightAware
01:41PM -33.9400 151.1810 73° East 29 33  Level FlightAware
01:42PM -33.9390 151.1860 76° East 25 29  Level FlightAware
01:42PM -33.9380 151.1880 59° Northeast 17 20  Level FlightAware
01:45PM -33.9461 151.1772 228° Southwest  Level Estimated
01:46PM -33.9461 151.1772 121° Southeast  Level Estimated
01:47PM -33.9461 151.1772 121° Southeast  Level Estimated
01:48PM -33.9461 151.1772 121° Southeast  Level Estimated
01:49PM -33.9461 151.1772 121° Southeast  Level Estimated
01:50PM -33.9461 151.1772 121° Southeast  Level Estimated
01:51PM -33.9461 151.1772 121° Southeast  Level Estimated
01:52PM -33.9461 151.1772 121° Southeast  Level Estimated
01:53PM -33.9461 151.1772 121° Southeast  Level Estimated
01:54PM -33.9461 151.1772 121° Southeast  Level Estimated